Time;durP1;ratioP1;P1;durP2;ratioP2;P2;SDS_P1;SDS_P2;PMS_P1;PMS_P2;Temp;Humidity;BMP_temperature;BMP_pressure;BME280_temperature;BME280_humidity;BME280_pressure;Samples;Min_cycle;Max_cycle;Signal;HPM_P1;HPM_P2
2022/11/04 00:01:14;;;;;;;214.60;101.47;;;;;;;;;;4939050;28;20206;-35
2022/11/04 00:03:40;;;;;;;204.70;99.93;;;;;;;;;;4941364;28;20179;-34
2022/11/04 00:06:07;;;;;;;215.97;103.20;;;;;;;;;;4942922;28;20306;-35
2022/11/04 00:08:33;;;;;;;230.93;106.43;;;;;;;;;;4936309;28;20185;-35
2022/11/04 00:13:45;;;;;;;228.93;105.97;;;;;;;;;;4942447;28;20206;-35
2022/11/04 00:18:56;;;;;;;203.97;101.93;;;;;;;;;;4939944;28;20177;-35
2022/11/04 00:29:37;;;;;;;198.33;97.47;;;;;;;;;;4938536;28;20272;-35
2022/11/04 00:34:48;;;;;;;217.33;102.43;;;;;;;;;;4940285;28;20272;-34
2022/11/04 00:37:14;;;;;;;193.20;94.60;;;;;;;;;;4940659;28;20598;-35
2022/11/04 00:39:40;;;;;;;201.63;98.40;;;;;;;;;;4942576;28;20186;-35
2022/11/04 00:42:06;;;;;;;206.30;99.77;;;;;;;;;;4942226;28;20182;-34
2022/11/04 00:44:32;;;;;;;177.40;91.50;;;;;;;;;;4937684;28;20520;-34
2022/11/04 00:46:58;;;;;;;197.00;95.50;;;;;;;;;;4940005;28;20207;-34
2022/11/04 00:49:24;;;;;;;175.87;90.43;;;;;;;;;;4929109;28;20558;-35
2022/11/04 00:51:50;;;;;;;176.17;91.67;;;;;;;;;;4934048;28;20663;-35
2022/11/04 00:54:16;;;;;;;166.50;88.20;;;;;;;;;;4933952;28;20171;-35
2022/11/04 00:56:43;;;;;;;165.03;87.70;;;;;;;;;;4937348;28;20215;-35
2022/11/04 00:59:09;;;;;;;176.17;89.20;;;;;;;;;;4932776;28;20326;-35
2022/11/04 01:01:35;;;;;;;167.27;86.93;;;;;;;;;;4935156;28;20256;-35
2022/11/04 01:04:01;;;;;;;172.80;88.10;;;;;;;;;;4936231;28;20592;-35
2022/11/04 01:06:27;;;;;;;176.50;88.87;;;;;;;;;;4937028;28;20174;-35
2022/11/04 01:09:01;;;;;;;161.23;84.47;;;;;;;;;;4934524;28;20580;-35
2022/11/04 01:11:28;;;;;;;168.40;89.57;;;;;;;;;;4936736;28;20749;-35
2022/11/04 01:13:54;;;;;;;173.07;89.57;;;;;;;;;;4939828;28;20171;-35
2022/11/04 01:16:21;;;;;;;187.77;92.63;;;;;;;;;;4942695;28;20175;-35
2022/11/04 01:18:47;;;;;;;200.57;98.37;;;;;;;;;;4937265;28;20592;-35
2022/11/04 01:21:14;;;;;;;186.67;95.20;;;;;;;;;;4928580;28;20788;-35
2022/11/04 01:23:41;;;;;;;201.37;97.70;;;;;;;;;;4932287;28;20178;-35
2022/11/04 01:26:12;;;;;;;160.87;85.70;;;;;;;;;;4930117;28;20711;-35
2022/11/04 01:28:38;;;;;;;172.10;89.70;;;;;;;;;;4934949;28;20195;-35
2022/11/04 01:31:08;;;;;;;165.87;86.57;;;;;;;;;;4938836;28;20300;-35
2022/11/04 01:33:34;;;;;;;194.10;96.70;;;;;;;;;;4936013;28;20178;-34
2022/11/04 01:36:00;;;;;;;165.07;87.40;;;;;;;;;;4936444;28;20186;-35
2022/11/04 01:38:26;;;;;;;157.90;84.40;;;;;;;;;;4939466;28;20175;-35
2022/11/04 01:40:52;;;;;;;155.87;85.23;;;;;;;;;;4935207;28;20541;-35
2022/11/04 01:43:19;;;;;;;165.87;87.50;;;;;;;;;;4931145;28;21278;-35
2022/11/04 01:45:51;;;;;;;162.30;88.33;;;;;;;;;;4936180;28;20378;-36
2022/11/04 01:48:21;;;;;;;153.10;82.70;;;;;;;;;;4943678;28;20182;-36
2022/11/04 01:50:49;;;;;;;166.37;88.53;;;;;;;;;;4941897;28;20581;-35
2022/11/04 01:53:17;;;;;;;215.13;104.60;;;;;;;;;;4937595;28;20186;-34
2022/11/04 01:55:47;;;;;;;186.43;94.73;;;;;;;;;;4937342;28;20712;-35
2022/11/04 01:58:14;;;;;;;176.87;90.33;;;;;;;;;;4943487;28;20180;-35
2022/11/04 02:00:42;;;;;;;183.13;95.97;;;;;;;;;;4943852;28;20535;-35
2022/11/04 02:03:08;;;;;;;180.50;92.43;;;;;;;;;;4938700;28;21043;-36
2022/11/04 02:05:34;;;;;;;171.60;85.77;;;;;;;;;;4944664;28;20823;-34
2022/11/04 02:08:02;;;;;;;175.93;89.20;;;;;;;;;;4945574;28;20175;-36
2022/11/04 02:10:29;;;;;;;184.03;90.60;;;;;;;;;;4941313;28;20391;-35
2022/11/04 02:12:56;;;;;;;170.23;87.60;;;;;;;;;;4940697;28;20660;-35
2022/11/04 02:15:30;;;;;;;154.03;78.37;;;;;;;;;;4936978;28;20260;-34
2022/11/04 02:17:59;;;;;;;221.73;94.03;;;;;;;;;;4941949;28;20208;-35
2022/11/04 02:20:34;;;;;;;164.47;84.97;;;;;;;;;;4940982;28;20187;-35
2022/11/04 02:23:20;;;;;;;179.40;85.03;;;;;;;;;;4938765;28;21682;-36
2022/11/04 02:26:05;;;;;;;184.00;89.27;;;;;;;;;;4944569;28;20174;-36
2022/11/04 02:28:39;;;;;;;161.30;82.27;;;;;;;;;;4940188;28;20229;-35
2022/11/04 02:31:17;;;;;;;159.10;78.83;;;;;;;;;;4940275;28;20231;-36
2022/11/04 02:33:43;;;;;;;152.43;76.83;;;;;;;;;;4942523;28;20170;-35
2022/11/04 02:36:13;;;;;;;173.80;82.07;;;;;;;;;;4943179;28;20702;-36
2022/11/04 02:38:57;;;;;;;170.13;78.03;;;;;;;;;;4936672;28;20182;-35
2022/11/04 02:41:26;;;;;;;218.87;93.10;;;;;;;;;;4937166;28;20231;-36
2022/11/04 02:44:01;;;;;;;176.83;83.13;;;;;;;;;;4940230;28;20202;-35
2022/11/04 02:46:36;;;;;;;211.50;87.73;;;;;;;;;;4939134;28;20167;-36
2022/11/04 02:49:07;;;;;;;207.17;86.33;;;;;;;;;;4938362;28;20393;-35
2022/11/04 02:51:43;;;;;;;242.23;96.73;;;;;;;;;;4941036;28;20998;-36
2022/11/04 02:54:15;;;;;;;207.57;83.63;;;;;;;;;;4945540;28;20655;-35
2022/11/04 02:56:44;;;;;;;186.67;83.97;;;;;;;;;;4939521;28;20248;-36
2022/11/04 02:59:12;;;;;;;185.07;82.70;;;;;;;;;;4941293;28;20183;-36
2022/11/04 03:01:40;;;;;;;188.03;82.57;;;;;;;;;;4943265;28;20498;-36
2022/11/04 03:04:08;;;;;;;255.53;96.77;;;;;;;;;;4939613;28;20221;-36
2022/11/04 03:06:36;;;;;;;248.37;93.67;;;;;;;;;;4940307;28;20970;-35
2022/11/04 03:09:03;;;;;;;211.90;87.73;;;;;;;;;;4940390;28;20959;-35
2022/11/04 03:11:30;;;;;;;288.37;100.17;;;;;;;;;;4940623;28;20166;-35
2022/11/04 03:13:56;;;;;;;241.33;93.63;;;;;;;;;;4935053;28;20171;-36
2022/11/04 03:16:42;;;;;;;242.60;91.57;;;;;;;;;;4943847;28;20520;-36
2022/11/04 03:19:24;;;;;;;311.17;103.70;;;;;;;;;;4941033;28;20747;-36
2022/11/04 03:22:13;;;;;;;251.10;96.27;;;;;;;;;;4940786;28;20422;-36
2022/11/04 03:24:40;;;;;;;209.13;86.97;;;;;;;;;;4924430;28;20222;-36
2022/11/04 03:27:27;;;;;;;319.70;102.63;;;;;;;;;;4945442;28;20187;-36
2022/11/04 03:30:07;;;;;;;309.20;98.87;;;;;;;;;;4937914;28;20720;-36
2022/11/04 03:32:56;;;;;;;249.07;92.63;;;;;;;;;;4944272;28;20723;-36
2022/11/04 03:35:23;;;;;;;346.07;108.07;;;;;;;;;;4935165;28;20191;-36
2022/11/04 03:37:49;;;;;;;220.20;90.93;;;;;;;;;;4938616;28;20259;-35
2022/11/04 03:40:16;;;;;;;385.43;114.00;;;;;;;;;;4943523;28;20202;-36
2022/11/04 03:42:47;;;;;;;227.63;88.33;;;;;;;;;;4946321;28;20604;-36
2022/11/04 03:45:14;;;;;;;349.00;102.97;;;;;;;;;;4946012;28;20535;-36
2022/11/04 03:47:40;;;;;;;405.10;110.90;;;;;;;;;;4944284;28;20650;-36
2022/11/04 03:50:12;;;;;;;293.00;100.40;;;;;;;;;;4939037;28;20193;-36
2022/11/04 03:52:38;;;;;;;353.47;105.40;;;;;;;;;;4941290;28;20202;-36
2022/11/04 03:55:05;;;;;;;305.40;102.50;;;;;;;;;;4943337;28;21106;-35
2022/11/04 03:57:50;;;;;;;252.93;93.73;;;;;;;;;;4938642;28;20649;-36
2022/11/04 04:00:18;;;;;;;346.37;106.43;;;;;;;;;;4938824;28;20748;-36
2022/11/04 04:02:49;;;;;;;477.93;116.53;;;;;;;;;;4936605;28;20171;-36
2022/11/04 04:05:36;;;;;;;306.77;101.77;;;;;;;;;;4938379;28;20838;-36
2022/11/04 04:08:14;;;;;;;311.23;102.20;;;;;;;;;;4936241;28;20492;-36
2022/11/04 04:10:45;;;;;;;341.00;106.13;;;;;;;;;;4936226;28;20194;-36
2022/11/04 04:13:11;;;;;;;452.20;121.17;;;;;;;;;;4940611;28;20175;-36
2022/11/04 04:15:44;;;;;;;592.73;119.70;;;;;;;;;;4937794;28;20487;-36
2022/11/04 04:18:13;;;;;;;509.63;124.27;;;;;;;;;;4938969;28;20600;-36
2022/11/04 04:20:40;;;;;;;376.73;108.17;;;;;;;;;;4938964;28;20167;-36
2022/11/04 04:27:29;;;;;;;563.67;124.97;;;;;;;;;;4938663;28;20564;-37
2022/11/04 04:28:39;;;;;;;457.93;123.13;;;;;;;;;;4939690;28;20571;-35
2022/11/04 04:31:06;;;;;;;349.43;109.43;;;;;;;;;;4938661;28;20213;-36
2022/11/04 04:33:32;;;;;;;485.53;121.83;;;;;;;;;;4941090;28;20710;-37
2022/11/04 04:35:59;;;;;;;493.37;120.37;;;;;;;;;;4942351;28;20166;-36
2022/11/04 04:46:49;;;;;;;392.97;111.00;;;;;;;;;;4945514;28;20182;-35
2022/11/04 04:49:15;;;;;;;296.87;97.70;;;;;;;;;;4938638;28;20713;-35
2022/11/04 04:51:43;;;;;;;423.23;111.97;;;;;;;;;;4941322;28;20178;-35
2022/11/04 04:54:09;;;;;;;323.13;101.00;;;;;;;;;;4939272;28;20166;-35
2022/11/04 04:56:35;;;;;;;267.40;96.63;;;;;;;;;;4941091;28;20252;-34
2022/11/04 04:59:01;;;;;;;248.17;92.33;;;;;;;;;;4942338;28;20171;-35
2022/11/04 05:01:28;;;;;;;565.43;127.60;;;;;;;;;;4942401;28;20710;-35
2022/11/04 05:03:54;;;;;;;388.13;113.20;;;;;;;;;;4941434;28;20342;-35
2022/11/04 05:06:20;;;;;;;382.20;110.27;;;;;;;;;;4937395;28;20186;-36
2022/11/04 05:08:46;;;;;;;432.53;113.33;;;;;;;;;;4941754;28;20182;-35
2022/11/04 05:11:12;;;;;;;410.40;110.40;;;;;;;;;;4938808;28;20233;-35
2022/11/04 05:13:39;;;;;;;363.13;105.47;;;;;;;;;;4939228;28;20180;-34
2022/11/04 05:16:10;;;;;;;414.53;109.37;;;;;;;;;;4937408;28;20179;-35
2022/11/04 05:18:36;;;;;;;313.07;98.17;;;;;;;;;;4937090;28;20183;-35
2022/11/04 05:21:07;;;;;;;407.30;105.17;;;;;;;;;;4937007;28;20192;-35
2022/11/04 05:23:34;;;;;;;328.00;98.63;;;;;;;;;;4939777;28;20190;-34
2022/11/04 05:26:00;;;;;;;277.70;89.73;;;;;;;;;;4938117;28;20190;-35
2022/11/04 05:28:26;;;;;;;308.20;97.43;;;;;;;;;;4939739;28;20183;-35
2022/11/04 05:30:52;;;;;;;272.03;90.70;;;;;;;;;;4935818;28;20356;-35
2022/11/04 05:33:18;;;;;;;224.47;87.23;;;;;;;;;;4939861;28;20237;-36
2022/11/04 05:35:44;;;;;;;309.53;98.37;;;;;;;;;;4939222;28;20175;-36
2022/11/04 05:38:11;;;;;;;233.03;87.30;;;;;;;;;;4932212;28;20258;-36
2022/11/04 05:40:37;;;;;;;292.73;96.30;;;;;;;;;;4938267;28;20293;-36
2022/11/04 05:43:03;;;;;;;298.80;96.10;;;;;;;;;;4936879;28;20198;-36
2022/11/04 05:45:29;;;;;;;297.63;96.97;;;;;;;;;;4935032;28;20698;-36
2022/11/04 05:47:59;;;;;;;186.53;78.63;;;;;;;;;;4935357;28;20193;-34
2022/11/04 05:50:25;;;;;;;268.43;89.90;;;;;;;;;;4936931;28;20204;-35
2022/11/04 05:52:51;;;;;;;253.53;91.27;;;;;;;;;;4937655;28;20570;-36
2022/11/04 05:55:17;;;;;;;245.70;90.80;;;;;;;;;;4937000;28;20178;-35
2022/11/04 05:57:43;;;;;;;251.17;92.17;;;;;;;;;;4934961;28;20429;-35
2022/11/04 06:00:10;;;;;;;241.20;90.43;;;;;;;;;;4933541;28;20409;-36
2022/11/04 06:02:36;;;;;;;214.43;86.73;;;;;;;;;;4937677;28;20183;-35
2022/11/04 06:05:02;;;;;;;188.90;82.40;;;;;;;;;;4934817;28;20178;-37
2022/11/04 06:07:28;;;;;;;183.80;78.27;;;;;;;;;;4941551;28;20190;-34
2022/11/04 06:09:54;;;;;;;161.33;74.10;;;;;;;;;;4939278;28;20198;-34
2022/11/04 06:12:20;;;;;;;155.53;65.97;;;;;;;;;;4933548;28;20252;-35
2022/11/04 06:14:46;;;;;;;136.27;59.53;;;;;;;;;;4928378;28;20427;-35
2022/11/04 06:17:20;;;;;;;138.63;58.00;;;;;;;;;;4939017;28;20590;-35
2022/11/04 06:19:46;;;;;;;117.03;54.23;;;;;;;;;;4938491;28;20214;-35
2022/11/04 06:22:17;;;;;;;122.37;53.33;;;;;;;;;;4937959;28;20953;-34
2022/11/04 06:24:43;;;;;;;124.83;54.60;;;;;;;;;;4940875;28;20630;-35
2022/11/04 06:27:09;;;;;;;67.43;31.50;;;;;;;;;;4943947;28;20662;-35
2022/11/04 06:29:40;;;;;;;23.53;10.27;;;;;;;;;;4937439;28;20308;-37
2022/11/04 06:32:07;;;;;;;17.07;7.60;;;;;;;;;;4940789;28;20249;-35
2022/11/04 06:34:34;;;;;;;7.40;3.50;;;;;;;;;;4941788;28;20564;-36
2022/11/04 06:37:00;;;;;;;7.93;2.50;;;;;;;;;;4938344;28;20175;-36
2022/11/04 06:39:26;;;;;;;4.73;1.80;;;;;;;;;;4936079;28;20186;-36
2022/11/04 06:41:52;;;;;;;4.07;1.10;;;;;;;;;;4943004;28;20810;-36
2022/11/04 06:44:18;;;;;;;4.50;1.33;;;;;;;;;;4937869;28;20615;-36
2022/11/04 06:46:44;;;;;;;1.63;0.93;;;;;;;;;;4938125;28;20179;-35
2022/11/04 06:49:14;;;;;;;3.23;1.33;;;;;;;;;;4945294;28;20186;-35
2022/11/04 06:51:41;;;;;;;3.30;1.00;;;;;;;;;;4946431;28;20233;-35
2022/11/04 06:54:07;;;;;;;1.67;0.83;;;;;;;;;;4941582;28;20246;-35
2022/11/04 06:56:33;;;;;;;2.70;0.90;;;;;;;;;;4932669;28;20954;-35
2022/11/04 06:58:59;;;;;;;3.33;1.20;;;;;;;;;;4932982;28;20249;-34
2022/11/04 07:01:27;;;;;;;1.60;0.90;;;;;;;;;;4937307;28;20867;-35
2022/11/04 07:03:54;;;;;;;4.87;1.17;;;;;;;;;;4938031;28;20174;-35
2022/11/04 07:06:20;;;;;;;2.47;0.87;;;;;;;;;;4941350;28;20183;-36
2022/11/04 07:08:47;;;;;;;2.80;1.10;;;;;;;;;;4953946;28;20981;-36
2022/11/04 07:11:13;;;;;;;2.77;1.00;;;;;;;;;;4931377;28;23525;-36
2022/11/04 07:13:40;;;;;;;2.00;0.97;;;;;;;;;;4938595;28;20265;-36
2022/11/04 07:16:06;;;;;;;2.87;1.13;;;;;;;;;;4935529;28;20178;-35
2022/11/04 07:18:33;;;;;;;1.23;0.80;;;;;;;;;;4936117;28;20297;-35
2022/11/04 07:20:59;;;;;;;2.73;0.80;;;;;;;;;;4939530;28;20202;-35
2022/11/04 07:23:25;;;;;;;1.50;0.90;;;;;;;;;;4940653;28;20180;-37
2022/11/04 07:25:53;;;;;;;1.53;0.70;;;;;;;;;;4937792;28;21162;-36
2022/11/04 07:28:19;;;;;;;1.43;0.80;;;;;;;;;;4942383;28;20258;-36
2022/11/04 07:30:45;;;;;;;1.77;0.90;;;;;;;;;;4939366;28;20320;-35
2022/11/04 07:33:11;;;;;;;1.03;0.80;;;;;;;;;;4936507;28;20167;-35
2022/11/04 07:35:38;;;;;;;1.17;0.90;;;;;;;;;;4944939;28;20206;-35
2022/11/04 07:38:04;;;;;;;1.57;1.10;;;;;;;;;;4943640;28;20284;-35
2022/11/04 07:40:33;;;;;;;1.53;1.00;;;;;;;;;;4933071;28;20182;-36
2022/11/04 07:42:59;;;;;;;3.43;0.93;;;;;;;;;;4941223;28;20179;-36
2022/11/04 07:45:25;;;;;;;1.57;0.70;;;;;;;;;;4940105;28;20232;-36
2022/11/04 07:47:52;;;;;;;2.40;0.90;;;;;;;;;;4937855;28;20228;-35
2022/11/04 07:50:18;;;;;;;1.70;0.90;;;;;;;;;;4933550;28;20202;-36
2022/11/04 07:52:44;;;;;;;1.30;0.80;;;;;;;;;;4936751;28;20884;-36
2022/11/04 07:55:17;;;;;;;0.70;0.70;;;;;;;;;;4934503;28;21020;-36
2022/11/04 07:57:43;;;;;;;2.63;0.90;;;;;;;;;;4931012;28;20171;-36
2022/11/04 08:00:10;;;;;;;1.27;0.60;;;;;;;;;;4934988;28;20177;-36
2022/11/04 08:02:36;;;;;;;3.03;0.90;;;;;;;;;;4940429;28;21021;-36
2022/11/04 08:05:05;;;;;;;4.53;1.03;;;;;;;;;;4932246;28;20219;-36
2022/11/04 08:07:31;;;;;;;2.87;0.80;;;;;;;;;;4935307;28;21147;-36
2022/11/04 08:09:57;;;;;;;1.10;0.70;;;;;;;;;;4935001;28;20242;-36
2022/11/04 08:12:23;;;;;;;2.57;0.70;;;;;;;;;;4928363;28;20282;-36
2022/11/04 08:14:50;;;;;;;1.03;0.63;;;;;;;;;;4929458;28;20187;-36
2022/11/04 08:17:16;;;;;;;2.23;0.83;;;;;;;;;;4931669;28;21051;-36
2022/11/04 08:19:42;;;;;;;2.33;0.70;;;;;;;;;;4929057;28;21006;-36
2022/11/04 08:22:09;;;;;;;0.90;0.70;;;;;;;;;;4928252;28;20198;-36
2022/11/04 08:24:35;;;;;;;1.47;0.80;;;;;;;;;;4927607;28;21086;-36
2022/11/04 08:27:02;;;;;;;1.10;0.80;;;;;;;;;;4929123;28;20236;-36
2022/11/04 08:29:28;;;;;;;2.30;0.70;;;;;;;;;;4929703;28;20747;-36
2022/11/04 08:31:54;;;;;;;1.13;0.80;;;;;;;;;;4928462;28;20281;-35
2022/11/04 08:34:20;;;;;;;2.00;0.70;;;;;;;;;;4924306;28;20213;-36
2022/11/04 08:36:46;;;;;;;1.47;0.80;;;;;;;;;;4925842;28;20184;-35
2022/11/04 08:39:12;;;;;;;0.97;0.70;;;;;;;;;;4928090;28;20186;-35
2022/11/04 08:41:40;;;;;;;0.90;0.60;;;;;;;;;;4925587;28;20179;-36
2022/11/04 08:44:06;;;;;;;1.53;0.60;;;;;;;;;;4926823;28;20185;-36
2022/11/04 08:46:36;;;;;;;2.03;0.67;;;;;;;;;;4930271;28;20218;-36
2022/11/04 08:49:03;;;;;;;1.33;0.70;;;;;;;;;;4924511;28;20258;-36
2022/11/04 08:51:30;;;;;;;0.50;0.40;;;;;;;;;;4926835;28;20235;-35
2022/11/04 08:53:57;;;;;;;2.80;0.60;;;;;;;;;;4932265;28;20261;-36
2022/11/04 08:56:25;;;;;;;0.60;0.50;;;;;;;;;;4929500;28;20916;-35
2022/11/04 08:58:52;;;;;;;0.53;0.53;;;;;;;;;;4926109;28;20893;-35
2022/11/04 09:01:19;;;;;;;2.27;0.80;;;;;;;;;;4930334;28;20739;-36
2022/11/04 09:03:46;;;;;;;0.50;0.50;;;;;;;;;;4928546;28;20580;-36
2022/11/04 09:06:14;;;;;;;0.50;0.50;;;;;;;;;;4926573;28;20316;-37
2022/11/04 09:08:42;;;;;;;0.47;0.40;;;;;;;;;;4927953;28;20523;-36
2022/11/04 09:11:09;;;;;;;1.90;0.63;;;;;;;;;;4930382;28;20219;-36
2022/11/04 09:13:35;;;;;;;0.50;0.50;;;;;;;;;;4925819;28;20186;-36
2022/11/04 09:16:01;;;;;;;2.33;0.60;;;;;;;;;;4928186;28;20581;-36
2022/11/04 09:18:27;;;;;;;0.87;0.60;;;;;;;;;;4930663;28;20736;-36
2022/11/04 09:20:53;;;;;;;1.27;0.50;;;;;;;;;;4927914;28;20221;-36
2022/11/04 09:23:19;;;;;;;1.20;0.60;;;;;;;;;;4941147;28;20481;-36
2022/11/04 09:25:46;;;;;;;0.43;0.40;;;;;;;;;;4942021;28;20182;-36
2022/11/04 09:28:12;;;;;;;0.60;0.50;;;;;;;;;;4933601;28;20182;-35
2022/11/04 09:30:38;;;;;;;4.00;1.10;;;;;;;;;;4953837;28;20203;-36
2022/11/04 09:33:04;;;;;;;6.00;0.90;;;;;;;;;;4928799;28;20179;-36
2022/11/04 09:35:30;;;;;;;0.50;0.50;;;;;;;;;;4929495;28;20179;-36
2022/11/04 09:37:59;;;;;;;1.07;0.40;;;;;;;;;;4930876;28;20232;-36
2022/11/04 09:40:25;;;;;;;0.50;0.50;;;;;;;;;;4926217;28;20482;-36
2022/11/04 09:42:51;;;;;;;2.93;0.50;;;;;;;;;;4924114;28;20761;-37
2022/11/04 09:45:19;;;;;;;0.53;0.40;;;;;;;;;;4928865;28;20178;-36
2022/11/04 09:47:47;;;;;;;0.47;0.40;;;;;;;;;;4929922;28;20467;-36
2022/11/04 09:50:24;;;;;;;0.40;0.40;;;;;;;;;;4924155;28;20214;-36
2022/11/04 09:52:53;;;;;;;0.40;0.40;;;;;;;;;;4930096;28;20186;-36
2022/11/04 09:55:31;;;;;;;0.40;0.40;;;;;;;;;;4934739;28;20183;-36
2022/11/04 09:57:58;;;;;;;0.60;0.50;;;;;;;;;;4928829;28;20305;-37
2022/11/04 10:00:24;;;;;;;1.07;0.50;;;;;;;;;;4929077;28;20751;-37
2022/11/04 10:03:13;;;;;;;1.63;0.50;;;;;;;;;;4941204;28;20183;-37
2022/11/04 10:05:52;;;;;;;0.80;0.40;;;;;;;;;;4926742;28;20190;-37
2022/11/04 10:08:30;;;;;;;0.40;0.40;;;;;;;;;;4926242;28;20593;-37
2022/11/04 10:11:05;;;;;;;1.47;0.40;;;;;;;;;;4924499;28;20210;-36
2022/11/04 10:13:50;;;;;;;1.40;0.40;;;;;;;;;;4933075;28;20345;-37
2022/11/04 10:16:22;;;;;;;0.43;0.40;;;;;;;;;;4925762;28;20298;-37
2022/11/04 10:19:00;;;;;;;0.40;0.40;;;;;;;;;;4930340;28;20630;-38
2022/11/04 10:21:45;;;;;;;0.50;0.50;;;;;;;;;;4936172;28;21117;-37
2022/11/04 10:24:35;;;;;;;1.10;0.50;;;;;;;;;;4938691;28;20634;-37
2022/11/04 10:27:09;;;;;;;4.53;0.57;;;;;;;;;;4937457;28;20261;-37
2022/11/04 10:29:38;;;;;;;1.13;0.57;;;;;;;;;;4941026;28;21178;-36
2022/11/04 10:32:13;;;;;;;1.20;0.50;;;;;;;;;;4939725;28;20325;-37
2022/11/04 10:34:43;;;;;;;1.53;0.50;;;;;;;;;;4933565;28;21016;-37
2022/11/04 10:37:11;;;;;;;0.47;0.40;;;;;;;;;;4934378;28;20179;-37
2022/11/04 10:39:41;;;;;;;1.63;0.50;;;;;;;;;;4935050;28;20218;-36
2022/11/04 10:42:09;;;;;;;2.40;0.50;;;;;;;;;;4931328;28;20232;-38
2022/11/04 10:44:36;;;;;;;1.47;0.40;;;;;;;;;;4933695;28;20187;-37
2022/11/04 10:47:11;;;;;;;0.40;0.40;;;;;;;;;;4933461;28;20187;-37
2022/11/04 10:49:42;;;;;;;0.47;0.40;;;;;;;;;;4937572;28;20487;-37
2022/11/04 10:52:08;;;;;;;0.50;0.50;;;;;;;;;;4937530;28;20934;-37
2022/11/04 10:54:42;;;;;;;0.77;0.50;;;;;;;;;;4933732;28;20438;-37
2022/11/04 10:57:10;;;;;;;0.77;0.43;;;;;;;;;;4933204;28;20731;-36
2022/11/04 10:59:49;;;;;;;0.50;0.50;;;;;;;;;;4935569;28;20182;-36
2022/11/04 11:02:15;;;;;;;1.40;0.50;;;;;;;;;;4943342;28;20268;-37
2022/11/04 11:04:44;;;;;;;1.57;0.60;;;;;;;;;;4944719;28;20962;-36
2022/11/04 11:07:10;;;;;;;0.40;0.40;;;;;;;;;;4939050;28;20534;-37
2022/11/04 11:09:42;;;;;;;0.40;0.40;;;;;;;;;;4939594;28;20765;-36
2022/11/04 11:12:11;;;;;;;0.70;0.40;;;;;;;;;;4941694;28;20253;-37
2022/11/04 11:14:38;;;;;;;0.73;0.50;;;;;;;;;;4940587;28;20167;-36
2022/11/04 11:17:21;;;;;;;0.40;0.40;;;;;;;;;;4937185;28;20432;-37
2022/11/04 11:19:53;;;;;;;1.17;0.47;;;;;;;;;;4940769;28;20245;-37
2022/11/04 11:22:35;;;;;;;0.83;0.40;;;;;;;;;;4937176;28;20180;-37
2022/11/04 11:25:20;;;;;;;0.40;0.40;;;;;;;;;;4938378;28;20183;-37
2022/11/04 11:27:53;;;;;;;1.70;0.50;;;;;;;;;;4940898;28;20666;-36
2022/11/04 11:30:20;;;;;;;1.43;0.50;;;;;;;;;;4938881;28;20207;-37
2022/11/04 11:32:52;;;;;;;0.70;0.50;;;;;;;;;;4938258;28;20174;-37
2022/11/04 11:35:18;;;;;;;2.63;0.50;;;;;;;;;;4940700;28;20821;-37
2022/11/04 11:37:46;;;;;;;2.43;0.50;;;;;;;;;;4939801;28;20206;-37
2022/11/04 11:40:30;;;;;;;0.93;0.50;;;;;;;;;;4937388;28;20523;-37
2022/11/04 11:42:58;;;;;;;0.60;0.50;;;;;;;;;;4941179;28;20186;-40
2022/11/04 11:45:24;;;;;;;0.40;0.40;;;;;;;;;;4944455;28;20537;-36
2022/11/04 11:47:53;;;;;;;0.93;0.47;;;;;;;;;;4939498;28;20409;-36
2022/11/04 11:50:34;;;;;;;0.40;0.40;;;;;;;;;;4938869;28;20419;-36
2022/11/04 11:53:12;;;;;;;0.93;0.50;;;;;;;;;;4944034;28;20181;-36
2022/11/04 11:55:39;;;;;;;1.70;0.47;;;;;;;;;;4942429;28;20205;-36
2022/11/04 11:58:15;;;;;;;2.67;0.47;;;;;;;;;;4936859;28;20549;-37
2022/11/04 12:00:44;;;;;;;0.60;0.47;;;;;;;;;;4941339;28;20183;-36
2022/11/04 12:03:14;;;;;;;0.40;0.40;;;;;;;;;;4943117;28;20249;-36
2022/11/04 12:05:47;;;;;;;0.40;0.40;;;;;;;;;;4938517;28;20183;-37
2022/11/04 12:08:25;;;;;;;1.33;0.53;;;;;;;;;;4937216;28;20222;-37
2022/11/04 12:11:03;;;;;;;1.53;0.60;;;;;;;;;;4940138;28;20550;-37
2022/11/04 12:13:31;;;;;;;1.77;0.50;;;;;;;;;;4939068;28;20182;-37
2022/11/04 12:16:16;;;;;;;0.40;0.40;;;;;;;;;;4938146;28;20179;-36
2022/11/04 12:18:51;;;;;;;1.73;0.50;;;;;;;;;;4940149;28;20748;-36
2022/11/04 12:21:25;;;;;;;1.63;0.50;;;;;;;;;;4940169;28;20472;-35
2022/11/04 12:23:58;;;;;;;1.03;0.50;;;;;;;;;;4938644;28;20199;-37
2022/11/04 12:26:29;;;;;;;1.30;0.60;;;;;;;;;;4939168;28;20194;-35
2022/11/04 12:28:55;;;;;;;0.50;0.40;;;;;;;;;;4942238;28;20191;-35
2022/11/04 12:31:24;;;;;;;0.73;0.50;;;;;;;;;;4938862;28;20686;-36
2022/11/04 12:33:50;;;;;;;2.03;0.60;;;;;;;;;;4936055;28;20194;-36
2022/11/04 12:36:32;;;;;;;0.40;0.40;;;;;;;;;;4938512;28;20190;-35
2022/11/04 12:39:07;;;;;;;0.87;0.57;;;;;;;;;;4939728;28;20183;-36
2022/11/04 12:41:59;;;;;;;0.50;0.40;;;;;;;;;;4939959;28;20197;-37
2022/11/04 12:44:33;;;;;;;0.70;0.47;;;;;;;;;;4937523;28;20190;-36
2022/11/04 12:47:06;;;;;;;1.37;0.47;;;;;;;;;;4943033;28;20750;-36
2022/11/04 12:49:35;;;;;;;0.73;0.40;;;;;;;;;;4937996;28;20297;-37
2022/11/04 12:52:10;;;;;;;0.40;0.40;;;;;;;;;;4938420;28;20501;-36
2022/11/04 12:54:51;;;;;;;0.90;0.57;;;;;;;;;;4940997;28;20175;-36
2022/11/04 12:57:20;;;;;;;0.50;0.50;;;;;;;;;;4926722;28;20476;-36
2022/11/04 13:00:06;;;;;;;2.73;0.50;;;;;;;;;;4924767;28;20241;-35
2022/11/04 13:02:39;;;;;;;0.63;0.53;;;;;;;;;;4928329;28;20244;-36
2022/11/04 13:05:28;;;;;;;2.93;0.60;;;;;;;;;;4928724;28;20187;-36
2022/11/04 13:08:15;;;;;;;0.87;0.40;;;;;;;;;;4925953;28;20195;-36
2022/11/04 13:10:44;;;;;;;2.10;0.70;;;;;;;;;;4935900;28;20206;-36
2022/11/04 13:13:11;;;;;;;0.40;0.40;;;;;;;;;;4937696;28;20183;-36
2022/11/04 13:15:43;;;;;;;0.50;0.50;;;;;;;;;;4937509;28;20175;-36
2022/11/04 13:18:13;;;;;;;1.20;0.50;;;;;;;;;;4941537;28;20183;-36
2022/11/04 13:20:42;;;;;;;1.03;0.50;;;;;;;;;;4943846;28;20187;-36
2022/11/04 13:23:14;;;;;;;0.60;0.50;;;;;;;;;;4939286;28;20593;-36
2022/11/04 13:25:43;;;;;;;1.70;0.57;;;;;;;;;;4935301;28;20465;-36
2022/11/04 13:28:13;;;;;;;1.77;0.50;;;;;;;;;;4938686;28;20378;-37
2022/11/04 13:30:59;;;;;;;0.50;0.50;;;;;;;;;;4939280;28;20200;-36
2022/11/04 13:33:25;;;;;;;0.87;0.50;;;;;;;;;;4922720;28;20190;-36
2022/11/04 13:36:11;;;;;;;0.50;0.50;;;;;;;;;;4944805;28;20287;-36
2022/11/04 13:38:42;;;;;;;0.40;0.40;;;;;;;;;;4942771;28;20627;-36
2022/11/04 13:41:27;;;;;;;0.40;0.40;;;;;;;;;;4938701;28;20755;-37
2022/11/04 13:44:05;;;;;;;0.83;0.50;;;;;;;;;;4941492;28;20221;-36
2022/11/04 13:46:34;;;;;;;0.70;0.60;;;;;;;;;;4944350;28;20186;-36
2022/11/04 13:49:00;;;;;;;2.87;0.60;;;;;;;;;;4939895;28;20182;-36
2022/11/04 13:51:34;;;;;;;0.67;0.60;;;;;;;;;;4943760;28;20198;-36
2022/11/04 13:54:00;;;;;;;0.47;0.47;;;;;;;;;;4946862;28;20399;-37
2022/11/04 13:56:31;;;;;;;0.60;0.60;;;;;;;;;;4944735;28;20506;-36
2022/11/04 13:59:17;;;;;;;3.43;0.80;;;;;;;;;;4927590;28;20976;-37
2022/11/04 14:01:43;;;;;;;1.83;0.60;;;;;;;;;;4930678;28;20444;-37
2022/11/04 14:04:13;;;;;;;2.57;0.70;;;;;;;;;;4942592;28;21294;-36
2022/11/04 14:06:50;;;;;;;2.40;0.50;;;;;;;;;;4929401;28;20758;-36
2022/11/04 14:09:23;;;;;;;1.90;0.40;;;;;;;;;;4938047;28;20182;-36
2022/11/04 14:12:08;;;;;;;2.33;0.60;;;;;;;;;;4943250;28;20518;-37
2022/11/04 14:14:34;;;;;;;4.77;1.00;;;;;;;;;;4934833;28;20731;-36
2022/11/04 14:17:03;;;;;;;1.30;0.47;;;;;;;;;;4929358;28;20235;-36
2022/11/04 14:19:48;;;;;;;0.50;0.50;;;;;;;;;;4930652;28;20289;-35
2022/11/04 14:22:16;;;;;;;0.70;0.60;;;;;;;;;;4925963;28;20183;-36
2022/11/04 14:24:42;;;;;;;0.70;0.60;;;;;;;;;;4928028;28;20191;-36
2022/11/04 14:27:27;;;;;;;2.53;0.70;;;;;;;;;;4927799;28;20183;-36
2022/11/04 14:29:54;;;;;;;1.50;0.63;;;;;;;;;;4926228;28;20301;-36
2022/11/04 14:32:25;;;;;;;2.27;0.90;;;;;;;;;;4936766;28;20182;-36
2022/11/04 14:34:59;;;;;;;2.17;0.70;;;;;;;;;;4929983;28;20885;-35
2022/11/04 14:37:27;;;;;;;2.27;0.60;;;;;;;;;;4934872;28;20276;-35
2022/11/04 14:39:56;;;;;;;1.10;0.67;;;;;;;;;;4936079;28;20182;-36
2022/11/04 14:42:41;;;;;;;1.27;0.70;;;;;;;;;;4935793;28;20227;-36
2022/11/04 14:45:08;;;;;;;0.93;0.60;;;;;;;;;;4928871;28;20193;-37
2022/11/04 14:47:36;;;;;;;1.27;0.80;;;;;;;;;;4929450;28;20190;-36
2022/11/04 14:50:04;;;;;;;2.17;0.70;;;;;;;;;;4931635;28;20203;-35
2022/11/04 14:52:33;;;;;;;1.03;0.93;;;;;;;;;;4928910;28;20190;-36
2022/11/04 14:55:05;;;;;;;0.80;0.80;;;;;;;;;;4924839;28;20179;-36
2022/11/04 14:57:36;;;;;;;1.00;0.90;;;;;;;;;;4928110;28;20188;-36
2022/11/04 15:00:21;;;;;;;2.53;0.80;;;;;;;;;;4928177;28;20187;-36
2022/11/04 15:02:47;;;;;;;0.93;0.67;;;;;;;;;;4929711;28;20198;-36
2022/11/04 15:05:24;;;;;;;1.23;0.80;;;;;;;;;;4929067;28;20293;-36
2022/11/04 15:07:50;;;;;;;0.70;0.70;;;;;;;;;;4922666;28;20206;-36
2022/11/04 15:10:19;;;;;;;0.60;0.60;;;;;;;;;;4923841;28;20202;-36